Time;durP1;ratioP1;P1;durP2;ratioP2;P2;SDS_P1;SDS_P2;PMS_P1;PMS_P2;Temp;Humidity;BMP_temperature;BMP_pressure;BME280_temperature;BME280_humidity;BME280_pressure;Samples;Min_cycle;Max_cycle;Signal;HPM_P1;HPM_P2
2022/10/17 00:01:49;;;;;;;9.05;3.22;;;13.70;99.90;;;;;;5134251;27;20035;-85
2022/10/17 00:04:14;;;;;;;6.78;3.40;;;13.70;99.90;;;;;;5122304;27;20047;-85
2022/10/17 00:06:40;;;;;;;6.65;3.60;;;13.70;99.90;;;;;;5142231;27;20039;-84
2022/10/17 00:09:06;;;;;;;7.32;3.75;;;13.70;99.90;;;;;;5122702;27;20526;-84
2022/10/17 00:11:32;;;;;;;6.47;3.40;;;13.70;99.90;;;;;;5139587;27;20477;-84
2022/10/17 00:13:58;;;;;;;7.70;3.90;;;13.70;99.90;;;;;;5140341;27;20117;-85
2022/10/17 00:16:29;;;;;;;7.53;3.30;;;13.70;99.90;;;;;;5105429;27;20501;-84
2022/10/17 00:18:55;;;;;;;10.52;3.72;;;13.80;99.90;;;;;;5139488;27;20039;-84
2022/10/17 00:21:21;;;;;;;8.50;3.70;;;13.80;99.90;;;;;;5138973;27;20460;-85
2022/10/17 00:23:47;;;;;;;7.38;3.58;;;13.80;99.90;;;;;;5122246;27;20034;-84
2022/10/17 00:26:13;;;;;;;8.95;4.07;;;13.80;99.90;;;;;;5139434;27;20061;-84
2022/10/17 00:28:39;;;;;;;6.07;3.45;;;13.80;99.90;;;;;;5156570;27;20497;-84
2022/10/17 00:31:06;;;;;;;8.82;4.20;;;13.80;99.90;;;;;;5156127;27;20039;-84
2022/10/17 00:33:34;;;;;;;8.27;3.95;;;13.80;99.90;;;;;;5118667;27;20050;-84
2022/10/17 00:36:08;;;;;;;7.22;4.25;;;13.80;99.90;;;;;;5135320;27;20066;-84
2022/10/17 00:38:34;;;;;;;6.55;3.92;;;13.80;99.90;;;;;;5149300;27;20039;-84
2022/10/17 00:41:00;;;;;;;8.35;4.00;;;13.80;99.90;;;;;;5138278;27;20513;-85
2022/10/17 00:43:28;;;;;;;5.82;4.00;;;13.80;99.90;;;;;;5138519;27;20038;-85
2022/10/17 00:45:54;;;;;;;8.35;4.00;;;13.80;99.90;;;;;;5139002;27;20050;-84
2022/10/17 00:48:23;;;;;;;7.68;4.20;;;13.80;99.90;;;;;;5155871;27;20038;-85
2022/10/17 00:50:49;;;;;;;10.65;4.80;;;13.80;99.90;;;;;;5156413;27;20046;-84
2022/10/17 00:53:16;;;;;;;6.82;4.25;;;13.80;99.90;;;;;;5104922;27;20038;-84
2022/10/17 00:55:51;;;;;;;6.32;4.90;;;13.80;99.90;;;;;;5121672;27;20039;-84
2022/10/17 00:58:18;;;;;;;10.43;4.80;;;13.80;99.90;;;;;;5138843;27;20038;-84
2022/10/17 01:00:46;;;;;;;9.02;5.38;;;13.80;99.90;;;;;;5121206;27;20329;-84
2022/10/17 01:03:12;;;;;;;8.10;4.82;;;13.80;99.90;;;;;;5156154;27;20046;-85
2022/10/17 01:05:40;;;;;;;11.35;5.53;;;13.80;99.90;;;;;;5121678;27;20050;-84
2022/10/17 01:08:07;;;;;;;8.52;4.90;;;13.80;99.90;;;;;;5138563;27;20129;-85
2022/10/17 01:10:58;;;;;;;7.60;4.95;;;13.80;99.90;;;;;;5138194;27;20038;-84
2022/10/17 01:13:38;;;;;;;10.45;5.70;;;13.80;99.90;;;;;;5137761;27;20482;-84
2022/10/17 01:16:25;;;;;;;9.13;5.22;;;13.70;99.90;;;;;;5138789;27;20161;-84
2022/10/17 01:19:04;;;;;;;10.23;5.70;;;13.70;99.90;;;;;;5138361;27;20515;-84
2022/10/17 01:21:59;;;;;;;8.48;5.82;;;13.70;99.90;;;;;;5138301;27;20091;-84
2022/10/17 01:24:24;;;;;;;7.75;6.07;;;13.70;99.90;;;;;;5126319;27;20112;-85
2022/10/17 01:27:16;;;;;;;7.90;6.13;;;13.70;99.90;;;;;;5135430;27;20043;-85
2022/10/17 01:30:39;;;;;;;9.40;6.32;;;13.70;99.90;;;;;;5120394;27;20039;-84
2022/10/17 01:33:23;;;;;;;11.60;6.50;;;13.60;99.90;;;;;;5078191;28;20047;-84
2022/10/17 01:36:16;;;;;;;7.78;6.47;;;13.60;99.90;;;;;;5077730;28;20028;-84
2022/10/17 01:38:50;;;;;;;9.50;6.50;;;13.70;99.90;;;;;;5151103;27;20049;-83
2022/10/17 01:41:43;;;;;;;10.68;6.70;;;13.60;99.90;;;;;;5158058;27;20042;-84
2022/10/17 01:44:43;;;;;;;10.45;6.70;;;13.60;99.90;;;;;;5156504;27;20049;-84
2022/10/17 01:47:14;;;;;;;8.43;6.70;;;13.60;99.90;;;;;;5155581;27;20406;-84
2022/10/17 01:49:42;;;;;;;10.90;7.07;;;13.60;99.90;;;;;;5138326;27;20529;-84
2022/10/17 01:52:17;;;;;;;8.95;7.45;;;13.60;99.90;;;;;;5155520;27;20063;-84
2022/10/17 01:54:50;;;;;;;9.35;6.93;;;13.60;99.90;;;;;;5138190;27;20068;-84
2022/10/17 01:57:28;;;;;;;15.65;7.05;;;13.60;99.90;;;;;;5138065;27;20064;-84
2022/10/17 01:59:55;;;;;;;10.70;7.35;;;13.60;99.90;;;;;;5138169;27;20045;-85
2022/10/17 02:02:21;;;;;;;11.18;7.63;;;13.60;99.90;;;;;;5155234;27;20046;-85
2022/10/17 02:04:50;;;;;;;9.80;7.38;;;13.50;99.90;;;;;;5117547;27;20104;-85
2022/10/17 02:07:16;;;;;;;10.75;7.63;;;13.50;99.90;;;;;;5134134;27;20068;-85
2022/10/17 02:09:41;;;;;;;13.20;7.90;;;13.50;99.90;;;;;;5117091;28;20039;-84
2022/10/17 02:12:34;;;;;;;14.50;7.57;;;13.50;99.90;;;;;;5100404;28;20042;-84
2022/10/17 02:15:43;;;;;;;8.80;7.90;;;13.50;99.90;;;;;;5134059;28;20119;-84
2022/10/17 02:18:18;;;;;;;8.48;7.57;;;13.50;99.90;;;;;;5134746;28;20065;-84
2022/10/17 02:21:01;;;;;;;10.45;7.95;;;13.40;99.90;;;;;;5146070;27;20042;-85
2022/10/17 02:23:38;;;;;;;10.07;8.68;;;13.50;99.90;;;;;;5155233;27;20117;-84
2022/10/17 02:26:13;;;;;;;10.90;8.85;;;13.40;99.90;;;;;;5137831;27;20448;-84
2022/10/17 02:28:51;;;;;;;11.63;9.23;;;13.50;99.90;;;;;;5154659;27;20046;-84
2022/10/17 02:31:24;;;;;;;10.93;8.75;;;13.50;99.90;;;;;;5154742;27;20066;-84
2022/10/17 02:33:58;;;;;;;10.20;9.15;;;13.50;99.90;;;;;;5154751;27;20118;-84
2022/10/17 02:36:31;;;;;;;14.50;8.85;;;13.50;99.90;;;;;;5137266;27;20042;-84
2022/10/17 02:38:57;;;;;;;12.88;9.35;;;13.40;99.90;;;;;;5137356;27;20046;-84
2022/10/17 02:41:24;;;;;;;11.48;9.32;;;13.50;99.90;;;;;;5154918;27;20078;-84
2022/10/17 02:43:51;;;;;;;15.13;9.20;;;13.40;99.90;;;;;;5121896;27;20039;-84
2022/10/17 02:46:22;;;;;;;14.27;9.93;;;13.50;99.90;;;;;;5120557;27;20474;-84
2022/10/17 02:49:12;;;;;;;12.50;9.98;;;13.50;99.90;;;;;;5154481;27;20066;-84
2022/10/17 02:51:44;;;;;;;12.40;10.45;;;13.50;99.90;;;;;;5133339;27;20088;-84
2022/10/17 02:54:28;;;;;;;13.45;10.27;;;13.50;99.90;;;;;;5154654;27;20046;-84
2022/10/17 02:57:15;;;;;;;12.75;9.80;;;13.50;99.90;;;;;;5137042;27;20039;-84
2022/10/17 02:59:43;;;;;;;13.13;10.07;;;13.50;99.90;;;;;;5157144;27;20125;-84
2022/10/17 03:02:09;;;;;;;11.60;10.13;;;13.50;99.90;;;;;;5140794;27;20039;-84
2022/10/17 03:04:36;;;;;;;11.25;10.00;;;13.50;99.90;;;;;;5120928;27;20134;-83
2022/10/17 03:07:01;;;;;;;13.88;10.98;;;13.40;99.90;;;;;;5137465;27;20518;-84
2022/10/17 03:09:27;;;;;;;14.10;10.68;;;13.50;99.90;;;;;;5107706;27;20027;-84
2022/10/17 03:11:53;;;;;;;13.13;10.93;;;13.50;99.90;;;;;;5141060;27;20038;-83
2022/10/17 03:14:18;;;;;;;15.98;11.43;;;13.50;99.90;;;;;;5141125;27;20035;-84
2022/10/17 03:16:44;;;;;;;12.65;11.10;;;13.50;99.90;;;;;;5140951;27;20042;-83
2022/10/17 03:19:10;;;;;;;15.75;11.07;;;13.50;99.90;;;;;;5140501;27;20031;-84
2022/10/17 03:21:36;;;;;;;14.93;11.02;;;13.50;99.90;;;;;;5106455;27;20567;-83
2022/10/17 03:24:03;;;;;;;16.20;11.45;;;13.50;99.90;;;;;;5124168;27;20042;-84
2022/10/17 03:26:29;;;;;;;16.30;11.25;;;13.50;99.90;;;;;;5119914;27;20475;-84
2022/10/17 03:28:54;;;;;;;16.92;11.93;;;13.50;99.90;;;;;;5102887;27;20067;-83
2022/10/17 03:31:20;;;;;;;15.45;12.27;;;13.50;99.90;;;;;;5119587;27;20088;-85
2022/10/17 03:33:46;;;;;;;18.92;12.20;;;13.50;99.90;;;;;;5120185;27;20058;-84
2022/10/17 03:36:17;;;;;;;15.90;12.50;;;13.60;99.90;;;;;;5103733;27;20045;-84
2022/10/17 03:38:43;;;;;;;14.05;11.32;;;13.60;99.90;;;;;;5137372;27;20113;-84
2022/10/17 03:41:09;;;;;;;14.40;12.23;;;13.60;99.90;;;;;;5145230;27;20034;-84
2022/10/17 03:43:35;;;;;;;15.52;13.27;;;13.60;99.90;;;;;;5106387;27;20046;-84
2022/10/17 03:46:01;;;;;;;15.50;11.90;;;13.70;99.90;;;;;;5120035;27;20396;-84
2022/10/17 03:48:28;;;;;;;15.27;13.15;;;13.70;99.90;;;;;;5120233;27;20496;-84
2022/10/17 03:51:03;;;;;;;16.75;12.80;;;13.70;99.90;;;;;;5103326;27;20402;-84
2022/10/17 03:53:29;;;;;;;16.88;12.98;;;13.70;99.90;;;;;;5137369;27;20038;-85
2022/10/17 03:55:55;;;;;;;14.90;13.05;;;13.70;99.90;;;;;;5127568;27;20038;-84
2022/10/17 03:58:21;;;;;;;15.38;12.45;;;13.80;99.90;;;;;;5157390;27;20552;-84
2022/10/17 04:00:47;;;;;;;15.98;13.05;;;13.70;99.90;;;;;;5123043;27;20034;-85
2022/10/17 04:03:12;;;;;;;16.58;12.95;;;13.70;99.90;;;;;;5123262;27;20521;-85
2022/10/17 04:05:38;;;;;;;17.00;13.43;;;13.70;99.90;;;;;;5119695;27;20051;-83
2022/10/17 04:08:04;;;;;;;18.98;13.60;;;13.70;99.90;;;;;;5119044;27;20071;-84
2022/10/17 04:10:29;;;;;;;15.25;12.80;;;13.70;99.90;;;;;;5111696;27;20481;-84
2022/10/17 04:12:55;;;;;;;18.80;13.55;;;13.80;99.90;;;;;;5123358;27;20067;-83
2022/10/17 04:15:21;;;;;;;16.27;13.10;;;13.80;99.90;;;;;;5123019;27;20454;-84
2022/10/17 04:17:47;;;;;;;16.55;13.25;;;13.70;99.90;;;;;;5140063;27;20045;-84
2022/10/17 04:20:12;;;;;;;17.63;13.98;;;13.70;99.90;;;;;;5123497;27;20053;-84
2022/10/17 04:22:38;;;;;;;16.00;12.73;;;13.70;99.90;;;;;;5106857;27;20042;-84
2022/10/17 04:25:04;;;;;;;19.70;13.75;;;13.80;99.90;;;;;;5118883;27;20483;-84
2022/10/17 04:27:30;;;;;;;15.68;13.40;;;13.80;99.90;;;;;;5119509;27;20173;-84
2022/10/17 04:29:55;;;;;;;19.05;12.52;;;13.80;99.90;;;;;;5121822;27;20113;-83
2022/10/17 04:32:21;;;;;;;16.52;13.90;;;13.80;99.90;;;;;;5123220;27;20453;-83
2022/10/17 04:34:50;;;;;;;16.38;12.70;;;13.80;99.90;;;;;;5139669;27;20495;-83
2022/10/17 04:37:16;;;;;;;19.60;13.82;;;13.80;99.90;;;;;;5105019;27;20042;-84
2022/10/17 04:39:41;;;;;;;16.30;13.30;;;13.80;99.90;;;;;;5139885;27;20039;-84
2022/10/17 04:42:07;;;;;;;16.15;12.98;;;13.80;99.90;;;;;;5122539;27;20034;-84
2022/10/17 04:44:34;;;;;;;17.00;13.45;;;13.90;99.90;;;;;;5122781;27;20153;-84
2022/10/17 04:47:00;;;;;;;20.13;13.50;;;13.90;99.90;;;;;;5105263;27;20095;-84
2022/10/17 04:49:26;;;;;;;18.33;13.45;;;13.90;99.90;;;;;;5118433;27;20491;-84
2022/10/17 04:51:52;;;;;;;17.23;13.45;;;14.00;99.90;;;;;;5128320;27;20118;-83
2022/10/17 04:54:18;;;;;;;18.27;13.90;;;14.00;99.90;;;;;;5139048;27;20043;-84
2022/10/17 04:56:45;;;;;;;16.90;13.43;;;14.00;99.90;;;;;;5156002;27;20440;-84
2022/10/17 04:59:11;;;;;;;16.17;13.05;;;14.00;99.90;;;;;;5138939;27;20038;-83
2022/10/17 05:01:37;;;;;;;14.68;13.00;;;14.00;99.90;;;;;;5138110;27;20053;-84
2022/10/17 05:04:02;;;;;;;16.73;12.77;;;14.00;99.90;;;;;;5121734;27;20125;-84
2022/10/17 05:06:29;;;;;;;22.90;13.32;;;14.10;99.90;;;;;;5104756;27;20039;-84
2022/10/17 05:08:54;;;;;;;16.45;14.13;;;14.10;99.90;;;;;;5121961;27;20049;-85
2022/10/17 05:11:26;;;;;;;20.00;13.63;;;14.10;99.90;;;;;;5156176;27;20039;-83
2022/10/17 05:13:54;;;;;;;15.80;12.75;;;14.10;99.90;;;;;;5155944;27;20072;-84
2022/10/17 05:16:20;;;;;;;16.65;13.55;;;14.10;99.90;;;;;;5138963;27;20471;-84
2022/10/17 05:18:50;;;;;;;18.83;13.90;;;14.10;99.90;;;;;;5121240;27;20046;-84
2022/10/17 05:21:17;;;;;;;15.57;12.80;;;14.20;99.90;;;;;;5138910;27;20042;-84
2022/10/17 05:23:43;;;;;;;17.58;12.77;;;14.20;99.90;;;;;;5137736;27;20038;-83
2022/10/17 05:26:08;;;;;;;18.30;12.35;;;14.20;99.90;;;;;;5121652;27;20501;-83
2022/10/17 05:28:34;;;;;;;15.52;12.50;;;14.20;99.90;;;;;;5138618;27;20122;-83
2022/10/17 05:31:04;;;;;;;19.15;13.55;;;14.30;99.90;;;;;;5121214;27;20039;-83
2022/10/17 05:33:29;;;;;;;18.75;13.32;;;14.30;99.90;;;;;;5122282;27;20035;-83
2022/10/17 05:35:55;;;;;;;15.80;12.73;;;14.30;99.90;;;;;;5121874;27;20141;-83
2022/10/17 05:38:21;;;;;;;17.25;12.95;;;14.40;99.90;;;;;;5122181;27;20087;-83
2022/10/17 05:40:46;;;;;;;20.08;12.57;;;14.40;99.90;;;;;;5138650;27;20034;-83
2022/10/17 05:43:13;;;;;;;20.17;13.43;;;14.40;99.90;;;;;;5139321;27;20125;-84
2022/10/17 05:45:39;;;;;;;17.50;13.00;;;14.50;99.90;;;;;;5101711;27;20424;-84
2022/10/17 05:48:05;;;;;;;19.60;13.25;;;14.50;99.90;;;;;;5100710;27;20123;-84
2022/10/17 05:50:31;;;;;;;16.23;12.13;;;14.60;99.90;;;;;;5127890;27;20167;-84
2022/10/17 05:52:56;;;;;;;17.38;13.32;;;14.60;99.90;;;;;;5138108;27;20035;-84
2022/10/17 05:55:23;;;;;;;16.70;12.15;;;14.60;99.90;;;;;;5154966;27;20079;-84
2022/10/17 05:57:49;;;;;;;16.30;11.75;;;14.70;99.90;;;;;;5156612;27;20045;-84
2022/10/17 06:00:15;;;;;;;18.88;12.63;;;14.70;99.90;;;;;;5155647;27;20046;-84
2022/10/17 06:02:41;;;;;;;17.35;12.43;;;14.70;99.90;;;;;;5121803;27;20505;-85
2022/10/17 06:05:07;;;;;;;15.52;11.98;;;14.80;99.90;;;;;;5140546;27;20061;-84
2022/10/17 06:07:34;;;;;;;16.95;11.70;;;14.80;99.90;;;;;;5156713;27;20047;-84
2022/10/17 06:09:59;;;;;;;15.43;11.90;;;14.80;99.90;;;;;;5160242;27;20031;-84
2022/10/17 06:12:25;;;;;;;16.83;11.45;;;14.80;99.90;;;;;;5139138;28;20038;-84
2022/10/17 06:14:51;;;;;;;15.13;11.30;;;14.90;99.90;;;;;;5148294;27;20086;-84
2022/10/17 06:17:17;;;;;;;16.35;11.65;;;14.90;99.90;;;;;;5145295;27;20089;-83
2022/10/17 06:19:43;;;;;;;17.45;11.77;;;15.00;99.90;;;;;;5122620;27;20072;-85
2022/10/17 06:22:09;;;;;;;14.20;11.10;;;15.10;99.90;;;;;;5121231;27;20049;-84
2022/10/17 06:24:35;;;;;;;14.05;11.20;;;15.20;99.90;;;;;;5120758;27;20112;-84
2022/10/17 06:27:01;;;;;;;12.07;10.38;;;15.30;99.90;;;;;;5097031;27;20466;-84
2022/10/17 06:29:26;;;;;;;14.77;10.57;;;15.30;99.90;;;;;;5146295;27;20083;-84
2022/10/17 06:31:53;;;;;;;16.15;10.50;;;15.40;99.90;;;;;;5101306;28;20164;-84
2022/10/17 06:34:18;;;;;;;16.38;10.60;;;15.40;99.90;;;;;;5110387;27;20038;-84
2022/10/17 06:36:44;;;;;;;15.32;10.60;;;15.40;99.90;;;;;;5123986;27;20043;-84
2022/10/17 06:39:10;;;;;;;15.90;10.07;;;15.50;99.90;;;;;;5122038;27;20035;-84
2022/10/17 06:41:36;;;;;;;15.05;9.77;;;15.50;99.90;;;;;;5122430;27;20035;-84
2022/10/17 06:44:07;;;;;;;15.05;9.98;;;15.60;99.90;;;;;;5131043;27;20039;-85
2022/10/17 06:46:32;;;;;;;13.63;9.85;;;15.70;99.90;;;;;;5125637;27;20045;-84
2022/10/17 06:48:58;;;;;;;11.48;8.68;;;15.70;99.90;;;;;;5125782;27;20129;-85
2022/10/17 06:51:24;;;;;;;17.02;8.80;;;15.70;99.90;;;;;;5141858;27;20519;-83
2022/10/17 06:54:00;;;;;;;15.77;10.25;;;15.80;99.90;;;;;;5126481;27;21470;-79
2022/10/17 06:56:40;;;;;;;11.00;9.10;;;15.80;99.90;;;;;;5147288;27;20063;-78
2022/10/17 06:59:05;;;;;;;12.88;9.07;;;15.80;99.90;;;;;;5134346;27;20406;-78
2022/10/17 07:01:31;;;;;;;13.35;9.25;;;15.80;99.90;;;;;;5118756;27;20382;-79
2022/10/17 07:03:57;;;;;;;14.68;9.48;;;15.90;99.90;;;;;;5113580;27;20524;-79
2022/10/17 07:06:23;;;;;;;13.13;8.75;;;15.90;99.90;;;;;;5110888;27;20061;-79
2022/10/17 07:08:49;;;;;;;10.98;8.70;;;16.00;99.90;;;;;;5116681;27;20092;-80
2022/10/17 07:11:19;;;;;;;10.50;8.77;;;16.00;99.90;;;;;;5139487;27;20026;-79
2022/10/17 07:13:45;;;;;;;12.23;8.32;;;16.10;99.90;;;;;;5139312;27;20043;-80
2022/10/17 07:16:12;;;;;;;13.70;8.93;;;16.10;99.90;;;;;;5139716;27;20047;-79
2022/10/17 07:18:39;;;;;;;10.65;8.50;;;16.20;99.90;;;;;;5137300;27;20038;-81
2022/10/17 07:21:05;;;;;;;11.90;8.40;;;16.20;99.90;;;;;;5119038;27;20070;-80
2022/10/17 07:23:33;;;;;;;11.10;8.90;;;16.20;99.90;;;;;;5133800;27;20562;-81
2022/10/17 07:26:08;;;;;;;13.85;8.75;;;16.30;99.90;;;;;;5121437;27;20038;-80
2022/10/17 07:28:35;;;;;;;14.75;9.02;;;16.30;99.90;;;;;;5152841;27;20035;-80
2022/10/17 07:31:06;;;;;;;14.68;8.38;;;16.40;99.90;;;;;;5139514;27;20118;-81
2022/10/17 07:33:32;;;;;;;16.40;8.90;;;16.40;99.90;;;;;;5139740;27;20087;-80
2022/10/17 07:35:59;;;;;;;15.30;9.50;;;16.40;99.90;;;;;;5121385;27;20084;-80
2022/10/17 07:38:25;;;;;;;12.00;7.78;;;16.50;99.90;;;;;;5139284;27;20049;-81
2022/10/17 07:40:55;;;;;;;12.80;8.15;;;16.50;99.90;;;;;;5140382;27;20191;-81
2022/10/17 07:43:22;;;;;;;10.90;8.88;;;16.50;99.90;;;;;;5139497;27;20042;-82
2022/10/17 07:45:48;;;;;;;11.25;8.35;;;16.50;99.90;;;;;;5155902;27;20070;-81
2022/10/17 07:48:14;;;;;;;12.73;8.20;;;16.50;99.90;;;;;;5120543;27;20031;-81
2022/10/17 07:50:39;;;;;;;10.57;8.48;;;16.50;99.90;;;;;;5122271;27;20035;-81
2022/10/17 07:53:05;;;;;;;10.13;7.97;;;16.50;99.90;;;;;;5105762;27;20038;-81
2022/10/17 07:55:31;;;;;;;10.00;8.45;;;16.50;99.90;;;;;;5156858;27;20039;-81
2022/10/17 07:57:59;;;;;;;11.40;7.88;;;16.60;99.90;;;;;;5137517;27;20039;-81
2022/10/17 08:00:26;;;;;;;13.23;9.48;;;16.50;99.90;;;;;;5154113;27;20080;-81
2022/10/17 08:02:51;;;;;;;11.73;8.32;;;16.60;99.90;;;;;;5140025;27;20065;-82
2022/10/17 08:05:17;;;;;;;13.23;8.60;;;16.60;99.90;;;;;;5121394;27;20486;-81
2022/10/17 08:07:43;;;;;;;11.95;8.68;;;16.50;99.90;;;;;;5138729;27;20074;-80
2022/10/17 08:10:11;;;;;;;10.35;8.07;;;16.60;99.90;;;;;;5122539;27;20531;-82
2022/10/17 08:12:37;;;;;;;13.43;8.57;;;16.60;99.90;;;;;;5139501;27;20027;-81
2022/10/17 08:15:04;;;;;;;10.48;8.23;;;16.50;99.90;;;;;;5104877;27;20462;-81
2022/10/17 08:17:30;;;;;;;14.98;8.60;;;16.60;99.90;;;;;;5138835;27;20090;-81
2022/10/17 08:19:56;;;;;;;9.48;8.32;;;16.50;99.90;;;;;;5121636;27;20697;-81
2022/10/17 08:22:21;;;;;;;11.57;8.23;;;16.50;99.90;;;;;;5122759;27;20035;-81
2022/10/17 08:24:47;;;;;;;11.43;8.07;;;16.50;99.90;;;;;;5089845;27;20071;-81
2022/10/17 08:27:13;;;;;;;10.30;8.43;;;16.50;99.90;;;;;;5132786;27;20091;-81
2022/10/17 08:29:39;;;;;;;13.38;8.57;;;16.40;99.90;;;;;;5104975;27;20039;-80
2022/10/17 08:32:06;;;;;;;13.40;8.68;;;16.40;99.90;;;;;;5139238;27;20045;-81
2022/10/17 08:34:32;;;;;;;14.52;8.30;;;16.40;99.90;;;;;;5122229;27;20410;-81
2022/10/17 08:36:58;;;;;;;10.68;9.02;;;16.40;99.90;;;;;;5121643;27;20034;-80
2022/10/17 08:39:23;;;;;;;13.85;8.82;;;16.50;99.90;;;;;;5120958;27;20130;-81
2022/10/17 08:41:49;;;;;;;13.35;9.10;;;16.50;99.90;;;;;;5155970;27;20045;-81
2022/10/17 08:44:42;;;;;;;12.25;9.15;;;16.50;99.90;;;;;;5136154;27;20053;-80
2022/10/17 08:47:13;;;;;;;12.82;9.07;;;16.50;99.90;;;;;;5129617;27;20042;-81
2022/10/17 08:49:47;;;;;;;12.65;8.27;;;16.50;99.90;;;;;;5136528;27;20061;-80
2022/10/17 08:52:48;;;;;;;13.93;9.10;;;16.50;99.90;;;;;;5155841;27;20538;-83
2022/10/17 08:55:26;;;;;;;10.82;9.10;;;16.50;99.90;;;;;;5137798;27;20035;-80
2022/10/17 08:57:52;;;;;;;13.70;8.75;;;16.50;99.90;;;;;;5138733;27;20065;-81
2022/10/17 09:00:20;;;;;;;11.93;9.38;;;16.50;99.90;;;;;;5120748;27;20038;-81
2022/10/17 09:03:13;;;;;;;13.95;8.63;;;16.50;99.90;;;;;;5156473;27;20043;-81
2022/10/17 09:05:54;;;;;;;12.77;9.05;;;16.50;99.90;;;;;;5138125;27;20129;-81
2022/10/17 09:08:30;;;;;;;10.88;8.60;;;16.50;99.90;;;;;;5136889;27;20043;-80
2022/10/17 09:11:33;;;;;;;13.35;9.23;;;16.50;99.90;;;;;;5144483;27;20042;-81
2022/10/17 09:14:17;;;;;;;14.02;9.05;;;16.50;99.90;;;;;;5159908;27;20035;-80
2022/10/17 09:16:51;;;;;;;14.13;9.15;;;16.50;99.90;;;;;;5123845;27;20038;-80
2022/10/17 09:19:31;;;;;;;14.77;8.77;;;16.50;99.90;;;;;;5130429;27;20142;-81
2022/10/17 09:22:23;;;;;;;12.75;9.48;;;16.50;99.90;;;;;;5122727;27;20041;-81
2022/10/17 09:25:05;;;;;;;13.73;8.93;;;16.50;99.90;;;;;;5131722;27;20054;-82
2022/10/17 09:27:37;;;;;;;11.73;8.10;;;16.50;99.90;;;;;;5142923;27;20035;-80
2022/10/17 09:30:46;;;;;;;16.25;9.52;;;16.50;99.90;;;;;;5119561;27;20035;-80
2022/10/17 09:33:16;;;;;;;11.95;8.13;;;16.50;99.90;;;;;;5122833;27;20164;-79
2022/10/17 09:35:42;;;;;;;12.80;8.77;;;16.50;99.90;;;;;;5134779;27;20030;-78
2022/10/17 09:38:18;;;;;;;17.88;8.90;;;16.50;99.90;;;;;;5134337;27;20038;-79
2022/10/17 09:40:52;;;;;;;11.20;9.27;;;16.50;99.90;;;;;;5127523;27;20039;-80
2022/10/17 09:43:18;;;;;;;14.20;9.32;;;16.50;99.90;;;;;;5128148;27;20054;-82
2022/10/17 09:46:07;;;;;;;15.93;9.60;;;16.50;99.90;;;;;;5116763;27;20100;-82
2022/10/17 09:48:52;;;;;;;12.15;9.18;;;16.50;99.90;;;;;;5132675;27;20129;-81
2022/10/17 09:51:19;;;;;;;15.52;9.90;;;16.50;99.90;;;;;;5132397;27;20087;-81
2022/10/17 09:54:14;;;;;;;17.95;10.57;;;16.50;99.90;;;;;;5108438;27;20038;-81
2022/10/17 09:56:58;;;;;;;18.95;10.38;;;16.50;99.90;;;;;;5139926;27;20051;-82
2022/10/17 09:59:35;;;;;;;16.70;9.95;;;16.50;99.90;;;;;;5136229;27;20075;-82
2022/10/17 10:02:12;;;;;;;17.08;11.02;;;16.50;99.90;;;;;;5110510;27;20042;-82
2022/10/17 10:04:56;;;;;;;13.57;10.27;;;16.50;99.90;;;;;;5129799;27;20035;-82
2022/10/17 10:07:23;;;;;;;12.57;10.13;;;16.50;99.90;;;;;;5130186;27;20052;-82
2022/10/17 10:09:50;;;;;;;15.05;10.27;;;16.50;99.90;;;;;;5135340;27;20439;-80
2022/10/17 10:12:35;;;;;;;17.83;11.10;;;16.50;99.90;;;;;;5148711;27;20039;-81
2022/10/17 10:15:00;;;;;;;14.57;10.57;;;16.50;99.90;;;;;;5119561;27;20041;-81
2022/10/17 10:17:34;;;;;;;14.82;10.70;;;16.50;99.90;;;;;;5131599;27;20692;-79
2022/10/17 10:20:02;;;;;;;16.80;10.90;;;16.50;99.90;;;;;;5150938;27;20054;-81
2022/10/17 10:22:28;;;;;;;16.35;10.73;;;16.50;99.90;;;;;;5134657;27;20082;-80
2022/10/17 10:25:14;;;;;;;17.95;11.07;;;16.50;99.90;;;;;;5118029;27;20542;-80
2022/10/17 10:27:42;;;;;;;17.48;11.15;;;16.50;99.90;;;;;;5119504;28;20083;-79
2022/10/17 10:30:27;;;;;;;17.85;11.07;;;16.50;99.90;;;;;;5128767;27;20383;-80
2022/10/17 10:32:55;;;;;;;18.33;10.82;;;16.50;99.90;;;;;;5135255;27;20035;-79
2022/10/17 10:35:35;;;;;;;19.38;11.60;;;16.50;99.90;;;;;;5133846;27;20050;-79
2022/10/17 10:38:08;;;;;;;15.07;11.40;;;16.50;99.90;;;;;;5151401;27;20123;-79
2022/10/17 10:40:54;;;;;;;14.15;10.18;;;16.50;99.90;;;;;;5121953;27;20134;-80
2022/10/17 10:43:41;;;;;;;19.52;11.32;;;16.50;99.90;;;;;;5133632;27;20043;-80
2022/10/17 10:46:27;;;;;;;17.73;11.57;;;16.50;99.90;;;;;;5146169;27;20046;-80
2022/10/17 10:48:57;;;;;;;15.20;10.85;;;16.50;99.90;;;;;;5146358;27;20141;-79
2022/10/17 10:51:43;;;;;;;18.83;12.40;;;16.50;99.90;;;;;;5149197;27;20542;-80
2022/10/17 10:54:25;;;;;;;17.08;12.20;;;16.50;99.90;;;;;;5128048;27;20076;-79
2022/10/17 10:56:53;;;;;;;20.30;12.35;;;16.60;99.90;;;;;;5151003;27;20115;-80
2022/10/17 10:59:36;;;;;;;16.67;11.98;;;16.50;99.90;;;;;;5150415;27;20503;-80
2022/10/17 11:02:23;;;;;;;17.98;12.35;;;16.60;99.90;;;;;;5119281;27;20027;-79
2022/10/17 11:05:03;;;;;;;20.08;12.63;;;16.60;99.90;;;;;;5130381;27;20042;-80
2022/10/17 11:07:47;;;;;;;15.68;11.63;;;16.60;99.90;;;;;;5147749;27;20469;-81
2022/10/17 11:10:25;;;;;;;16.70;11.98;;;16.70;99.90;;;;;;5122495;27;20130;-80
2022/10/17 11:13:09;;;;;;;19.73;11.63;;;16.70;99.90;;;;;;5142040;27;20031;-79
2022/10/17 11:15:43;;;;;;;17.05;11.52;;;16.70;99.90;;;;;;5133451;27;20095;-80
2022/10/17 11:18:34;;;;;;;18.65;12.05;;;16.70;99.90;;;;;;5131898;27;20054;-80
2022/10/17 11:21:14;;;;;;;17.60;12.02;;;16.70;99.90;;;;;;5152637;27;20042;-81
2022/10/17 11:23:45;;;;;;;15.15;11.10;;;16.60;99.90;;;;;;5139579;27;20039;-79
2022/10/17 11:26:26;;;;;;;14.82;11.05;;;16.70;99.90;;;;;;5123557;27;20083;-80
2022/10/17 11:28:53;;;;;;;14.35;10.98;;;16.70;99.90;;;;;;5128371;27;20045;-80
2022/10/17 11:31:21;;;;;;;15.95;11.38;;;16.70;99.90;;;;;;5122208;27;20104;-80
2022/10/17 11:33:58;;;;;;;15.05;10.95;;;16.70;99.90;;;;;;5153029;27;20623;-79
2022/10/17 11:36:40;;;;;;;14.32;10.90;;;16.70;99.90;;;;;;5155490;27;20080;-82
2022/10/17 11:39:21;;;;;;;15.27;11.23;;;16.80;99.90;;;;;;5149256;27;20101;-80
2022/10/17 11:41:51;;;;;;;16.13;10.38;;;16.80;99.90;;;;;;5136832;27;20039;-79
2022/10/17 11:44:32;;;;;;;19.05;11.57;;;16.90;99.90;;;;;;5127300;27;20045;-79
2022/10/17 11:47:11;;;;;;;15.57;10.80;;;16.90;99.90;;;;;;5137958;27;20035;-80
2022/10/17 11:49:42;;;;;;;14.18;10.52;;;17.00;99.90;;;;;;5135881;27;20074;-80
2022/10/17 11:52:36;;;;;;;13.57;10.40;;;17.00;99.90;;;;;;5136497;27;20035;-79
2022/10/17 11:55:09;;;;;;;15.20;11.02;;;17.10;99.90;;;;;;5137299;27;20031;-80
2022/10/17 11:58:06;;;;;;;13.88;10.80;;;17.10;99.90;;;;;;5155863;27;20078;-81
2022/10/17 12:00:56;;;;;;;14.98;10.52;;;17.10;99.90;;;;;;5150114;27;20095;-80
2022/10/17 12:03:38;;;;;;;11.85;10.40;;;17.20;99.90;;;;;;5144636;27;20047;-79
2022/10/17 12:06:13;;;;;;;16.08;10.35;;;17.10;99.90;;;;;;5134004;27;20062;-80
2022/10/17 12:09:10;;;;;;;13.15;10.15;;;17.10;99.90;;;;;;5128841;27;20038;-79
2022/10/17 12:11:53;;;;;;;14.95;9.95;;;17.20;99.90;;;;;;5135409;27;20043;-80
2022/10/17 12:14:37;;;;;;;13.10;10.85;;;17.20;99.90;;;;;;5132018;27;20062;-80
2022/10/17 12:17:19;;;;;;;16.35;10.02;;;17.20;99.90;;;;;;5130487;27;20039;-80
2022/10/17 12:19:45;;;;;;;11.55;9.07;;;17.20;99.90;;;;;;5130937;27;20397;-80
2022/10/17 12:22:19;;;;;;;12.05;9.38;;;17.20;99.90;;;;;;5133369;27;20042;-80
2022/10/17 12:24:57;;;;;;;10.90;9.57;;;17.20;99.90;;;;;;5133374;27;20031;-80
2022/10/17 12:27:34;;;;;;;10.70;8.68;;;17.20;99.90;;;;;;5136605;27;20514;-81
2022/10/17 12:30:15;;;;;;;12.25;9.73;;;17.10;99.90;;;;;;5133881;27;20046;-80
2022/10/17 12:33:20;;;;;;;12.15;9.43;;;17.10;99.90;;;;;;5131530;27;20055;-80
2022/10/17 12:35:48;;;;;;;12.30;9.30;;;17.20;99.90;;;;;;5123491;27;20043;-80
2022/10/17 12:38:19;;;;;;;11.63;9.48;;;17.10;99.90;;;;;;5126733;27;20112;-80
2022/10/17 12:40:49;;;;;;;11.25;9.43;;;17.10;99.90;;;;;;5135167;27;20053;-80
2022/10/17 12:43:15;;;;;;;13.60;9.13;;;17.10;99.90;;;;;;5153421;27;20414;-80
2022/10/17 12:45:44;;;;;;;11.77;9.23;;;17.00;99.90;;;;;;5130767;27;20043;-80
2022/10/17 12:48:10;;;;;;;14.10;9.93;;;17.10;99.90;;;;;;5147657;27;20376;-81
2022/10/17 12:51:10;;;;;;;12.45;9.65;;;17.10;99.90;;;;;;5102245;27;20103;-80
2022/10/17 12:54:07;;;;;;;9.95;8.93;;;17.10;99.90;;;;;;5150385;27;20051;-80
2022/10/17 12:56:44;;;;;;;8.43;5.95;;;17.00;99.90;;;;;;5128725;27;20039;-81
2022/10/17 12:59:23;;;;;;;9.35;4.78;;;17.00;99.90;;;;;;5134673;27;20102;-81